sensor_id;sensor_type;location;lat;lon;timestamp;temperature;humidity
26336;DHT22;14047;50.936;4.654;2024-01-16T00:01:53;1.80;99.90
26336;DHT22;14047;50.936;4.654;2024-01-16T00:04:19;1.80;99.90
26336;DHT22;14047;50.936;4.654;2024-01-16T00:06:45;1.70;99.90
26336;DHT22;14047;50.936;4.654;2024-01-16T00:09:11;1.70;99.90
26336;DHT22;14047;50.936;4.654;2024-01-16T00:11:41;1.70;99.90
26336;DHT22;14047;50.936;4.654;2024-01-16T00:14:07;1.70;99.90
26336;DHT22;14047;50.936;4.654;2024-01-16T00:16:33;1.70;99.90
26336;DHT22;14047;50.936;4.654;2024-01-16T00:18:59;1.70;99.90
26336;DHT22;14047;50.936;4.654;2024-01-16T00:21:25;1.80;99.90
26336;DHT22;14047;50.936;4.654;2024-01-16T00:23:51;1.80;99.90
26336;DHT22;14047;50.936;4.654;2024-01-16T00:26:23;1.80;99.90
26336;DHT22;14047;50.936;4.654;2024-01-16T00:28:49;1.90;99.90
26336;DHT22;14047;50.936;4.654;2024-01-16T00:31:16;1.70;99.90
26336;DHT22;14047;50.936;4.654;2024-01-16T00:33:44;1.70;99.90
26336;DHT22;14047;50.936;4.654;2024-01-16T00:36:10;1.70;99.90
26336;DHT22;14047;50.936;4.654;2024-01-16T00:38:36;1.70;99.90
26336;DHT22;14047;50.936;4.654;2024-01-16T00:41:02;1.70;99.90
26336;DHT22;14047;50.936;4.654;2024-01-16T00:43:28;1.70;99.90
26336;DHT22;14047;50.936;4.654;2024-01-16T00:45:54;1.60;99.90
26336;DHT22;14047;50.936;4.654;2024-01-16T00:48:20;1.60;99.90
26336;DHT22;14047;50.936;4.654;2024-01-16T00:50:46;1.50;99.90
26336;DHT22;14047;50.936;4.654;2024-01-16T00:53:16;1.60;99.90
26336;DHT22;14047;50.936;4.654;2024-01-16T00:55:42;1.50;99.90
26336;DHT22;14047;50.936;4.654;2024-01-16T00:58:08;1.50;99.90
26336;DHT22;14047;50.936;4.654;2024-01-16T01:00:34;1.50;99.90
26336;DHT22;14047;50.936;4.654;2024-01-16T01:03:03;1.40;99.90
26336;DHT22;14047;50.936;4.654;2024-01-16T01:05:29;1.40;99.90
26336;DHT22;14047;50.936;4.654;2024-01-16T01:07:56;1.30;99.90
26336;DHT22;14047;50.936;4.654;2024-01-16T01:10:22;1.40;99.90
26336;DHT22;14047;50.936;4.654;2024-01-16T01:12:49;1.30;99.90
26336;DHT22;14047;50.936;4.654;2024-01-16T01:15:15;1.20;99.90
26336;DHT22;14047;50.936;4.654;2024-01-16T01:17:41;1.20;99.90
26336;DHT22;14047;50.936;4.654;2024-01-16T01:20:10;1.20;99.90
26336;DHT22;14047;50.936;4.654;2024-01-16T01:22:38;1.20;99.90
26336;DHT22;14047;50.936;4.654;2024-01-16T01:25:04;1.10;99.90
26336;DHT22;14047;50.936;4.654;2024-01-16T01:27:30;1.10;99.90
26336;DHT22;14047;50.936;4.654;2024-01-16T01:29:56;1.10;99.90
26336;DHT22;14047;50.936;4.654;2024-01-16T01:32:22;1.10;99.90
26336;DHT22;14047;50.936;4.654;2024-01-16T01:34:48;1.10;99.90
26336;DHT22;14047;50.936;4.654;2024-01-16T01:37:14;1.10;99.90
26336;DHT22;14047;50.936;4.654;2024-01-16T01:39:40;1.10;99.90
26336;DHT22;14047;50.936;4.654;2024-01-16T01:42:06;1.10;99.90
26336;DHT22;14047;50.936;4.654;2024-01-16T01:44:32;1.10;99.90
26336;DHT22;14047;50.936;4.654;2024-01-16T01:46:58;1.10;99.90
26336;DHT22;14047;50.936;4.654;2024-01-16T01:49:25;1.10;99.90
26336;DHT22;14047;50.936;4.654;2024-01-16T01:51:53;1.10;99.90
26336;DHT22;14047;50.936;4.654;2024-01-16T01:54:19;1.10;99.90
26336;DHT22;14047;50.936;4.654;2024-01-16T01:56:47;1.10;99.90
26336;DHT22;14047;50.936;4.654;2024-01-16T01:59:14;1.10;99.90
26336;DHT22;14047;50.936;4.654;2024-01-16T02:01:47;0.90;99.90
26336;DHT22;14047;50.936;4.654;2024-01-16T02:04:17;0.90;99.90
26336;DHT22;14047;50.936;4.654;2024-01-16T02:06:45;0.90;99.90
26336;DHT22;14047;50.936;4.654;2024-01-16T02:09:14;0.90;99.90
26336;DHT22;14047;50.936;4.654;2024-01-16T02:11:41;0.90;99.90
26336;DHT22;14047;50.936;4.654;2024-01-16T02:14:07;0.90;99.90
26336;DHT22;14047;50.936;4.654;2024-01-16T02:16:41;0.90;99.90
26336;DHT22;14047;50.936;4.654;2024-01-16T02:19:07;0.90;99.90
26336;DHT22;14047;50.936;4.654;2024-01-16T02:21:47;0.90;99.90
26336;DHT22;14047;50.936;4.654;2024-01-16T02:24:15;0.90;99.90
26336;DHT22;14047;50.936;4.654;2024-01-16T02:26:41;0.90;99.90
26336;DHT22;14047;50.936;4.654;2024-01-16T02:29:07;0.90;99.90
26336;DHT22;14047;50.936;4.654;2024-01-16T02:31:33;0.80;99.90
26336;DHT22;14047;50.936;4.654;2024-01-16T02:34:00;0.90;99.90
26336;DHT22;14047;50.936;4.654;2024-01-16T02:36:27;0.80;99.90
26336;DHT22;14047;50.936;4.654;2024-01-16T02:38:54;0.80;99.90
26336;DHT22;14047;50.936;4.654;2024-01-16T02:41:21;0.80;99.90
26336;DHT22;14047;50.936;4.654;2024-01-16T02:43:47;0.80;99.90
26336;DHT22;14047;50.936;4.654;2024-01-16T02:46:14;0.80;99.90
26336;DHT22;14047;50.936;4.654;2024-01-16T02:48:40;0.80;99.90
26336;DHT22;14047;50.936;4.654;2024-01-16T02:51:08;0.80;99.90
26336;DHT22;14047;50.936;4.654;2024-01-16T02:53:34;0.80;99.90
26336;DHT22;14047;50.936;4.654;2024-01-16T02:56:00;0.70;99.90
26336;DHT22;14047;50.936;4.654;2024-01-16T02:58:28;0.70;99.90
26336;DHT22;14047;50.936;4.654;2024-01-16T03:00:55;0.70;99.90
26336;DHT22;14047;50.936;4.654;2024-01-16T03:03:21;0.80;99.90
26336;DHT22;14047;50.936;4.654;2024-01-16T03:05:47;0.70;99.90
26336;DHT22;14047;50.936;4.654;2024-01-16T03:08:14;0.70;99.90
26336;DHT22;14047;50.936;4.654;2024-01-16T03:10:39;0.60;99.90
26336;DHT22;14047;50.936;4.654;2024-01-16T03:13:05;0.60;99.90
26336;DHT22;14047;50.936;4.654;2024-01-16T03:15:31;0.60;99.90
26336;DHT22;14047;50.936;4.654;2024-01-16T03:17:58;0.60;99.90
26336;DHT22;14047;50.936;4.654;2024-01-16T03:20:24;0.60;99.90
26336;DHT22;14047;50.936;4.654;2024-01-16T03:22:50;0.60;99.90
26336;DHT22;14047;50.936;4.654;2024-01-16T03:25:16;0.70;99.90
26336;DHT22;14047;50.936;4.654;2024-01-16T03:27:45;0.80;99.90
26336;DHT22;14047;50.936;4.654;2024-01-16T03:30:11;0.80;99.90
26336;DHT22;14047;50.936;4.654;2024-01-16T03:32:38;0.70;99.90
26336;DHT22;14047;50.936;4.654;2024-01-16T03:35:05;0.80;99.90
26336;DHT22;14047;50.936;4.654;2024-01-16T03:37:31;0.80;99.90
26336;DHT22;14047;50.936;4.654;2024-01-16T03:39:57;0.80;99.90
26336;DHT22;14047;50.936;4.654;2024-01-16T03:42:23;0.80;99.90
26336;DHT22;14047;50.936;4.654;2024-01-16T03:44:49;0.80;99.90
26336;DHT22;14047;50.936;4.654;2024-01-16T03:47:15;0.70;99.90
26336;DHT22;14047;50.936;4.654;2024-01-16T03:49:41;0.60;99.90
26336;DHT22;14047;50.936;4.654;2024-01-16T03:52:07;0.40;99.90
26336;DHT22;14047;50.936;4.654;2024-01-16T03:54:33;0.30;99.90
26336;DHT22;14047;50.936;4.654;2024-01-16T03:56:59;0.40;99.90
26336;DHT22;14047;50.936;4.654;2024-01-16T03:59:25;0.30;99.90
26336;DHT22;14047;50.936;4.654;2024-01-16T04:01:51;0.40;99.90
26336;DHT22;14047;50.936;4.654;2024-01-16T04:04:18;0.40;99.90
26336;DHT22;14047;50.936;4.654;2024-01-16T04:06:44;0.40;99.90
26336;DHT22;14047;50.936;4.654;2024-01-16T04:09:10;0.50;99.90
26336;DHT22;14047;50.936;4.654;2024-01-16T04:11:36;0.50;99.90
26336;DHT22;14047;50.936;4.654;2024-01-16T04:14:02;0.50;99.90
26336;DHT22;14047;50.936;4.654;2024-01-16T04:16:28;0.40;99.90
26336;DHT22;14047;50.936;4.654;2024-01-16T04:18:54;0.50;99.90
26336;DHT22;14047;50.936;4.654;2024-01-16T04:21:20;0.50;99.90
26336;DHT22;14047;50.936;4.654;2024-01-16T04:23:46;0.40;99.90
26336;DHT22;14047;50.936;4.654;2024-01-16T04:26:13;0.30;99.90
26336;DHT22;14047;50.936;4.654;2024-01-16T04:28:39;0.20;99.90
26336;DHT22;14047;50.936;4.654;2024-01-16T04:31:05;0.20;99.90
26336;DHT22;14047;50.936;4.654;2024-01-16T04:33:31;0.20;99.90
26336;DHT22;14047;50.936;4.654;2024-01-16T04:35:57;0.10;99.90
26336;DHT22;14047;50.936;4.654;2024-01-16T04:38:23;0.10;99.90
26336;DHT22;14047;50.936;4.654;2024-01-16T04:40:49;0.20;99.90
26336;DHT22;14047;50.936;4.654;2024-01-16T04:43:15;0.20;99.90
26336;DHT22;14047;50.936;4.654;2024-01-16T04:45:41;0.20;99.90
26336;DHT22;14047;50.936;4.654;2024-01-16T04:48:07;0.20;99.90
26336;DHT22;14047;50.936;4.654;2024-01-16T04:50:34;0.20;99.90
26336;DHT22;14047;50.936;4.654;2024-01-16T04:53:01;0.20;99.90
26336;DHT22;14047;50.936;4.654;2024-01-16T04:55:28;0.40;99.90
26336;DHT22;14047;50.936;4.654;2024-01-16T04:57:55;0.30;99.90
26336;DHT22;14047;50.936;4.654;2024-01-16T05:00:22;0.50;99.90
26336;DHT22;14047;50.936;4.654;2024-01-16T05:02:48;0.30;99.90
26336;DHT22;14047;50.936;4.654;2024-01-16T05:05:14;0.20;99.90
26336;DHT22;14047;50.936;4.654;2024-01-16T05:07:41;0.20;99.90
26336;DHT22;14047;50.936;4.654;2024-01-16T05:10:10;0.10;99.90
26336;DHT22;14047;50.936;4.654;2024-01-16T05:12:39;0.10;99.90
26336;DHT22;14047;50.936;4.654;2024-01-16T05:15:05;0.20;99.90
26336;DHT22;14047;50.936;4.654;2024-01-16T05:17:32;0.30;99.90
26336;DHT22;14047;50.936;4.654;2024-01-16T05:19:59;0.20;99.90
26336;DHT22;14047;50.936;4.654;2024-01-16T05:22:24;0.00;99.90
26336;DHT22;14047;50.936;4.654;2024-01-16T05:24:51;-0.10;99.90
26336;DHT22;14047;50.936;4.654;2024-01-16T05:27:17;-0.20;99.90
26336;DHT22;14047;50.936;4.654;2024-01-16T05:29:43;-0.30;99.90
26336;DHT22;14047;50.936;4.654;2024-01-16T05:32:09;-0.20;99.90
26336;DHT22;14047;50.936;4.654;2024-01-16T05:34:35;-0.20;99.90
26336;DHT22;14047;50.936;4.654;2024-01-16T05:37:01;-0.20;99.90
26336;DHT22;14047;50.936;4.654;2024-01-16T05:39:26;-0.50;99.90
26336;DHT22;14047;50.936;4.654;2024-01-16T05:41:52;-0.60;99.90
26336;DHT22;14047;50.936;4.654;2024-01-16T05:44:18;-0.60;99.90
26336;DHT22;14047;50.936;4.654;2024-01-16T05:46:44;-0.70;99.90
26336;DHT22;14047;50.936;4.654;2024-01-16T05:49:10;-0.70;99.90
26336;DHT22;14047;50.936;4.654;2024-01-16T05:51:37;-0.60;99.90
26336;DHT22;14047;50.936;4.654;2024-01-16T05:54:06;-0.60;99.90
26336;DHT22;14047;50.936;4.654;2024-01-16T05:56:32;-0.50;99.90
26336;DHT22;14047;50.936;4.654;2024-01-16T05:59:00;-0.60;99.90
26336;DHT22;14047;50.936;4.654;2024-01-16T06:01:26;-0.60;99.90
26336;DHT22;14047;50.936;4.654;2024-01-16T06:03:53;-0.60;99.90
26336;DHT22;14047;50.936;4.654;2024-01-16T06:06:19;-0.70;99.90
26336;DHT22;14047;50.936;4.654;2024-01-16T06:08:45;-0.80;99.90
26336;DHT22;14047;50.936;4.654;2024-01-16T06:11:11;-0.80;99.90
26336;DHT22;14047;50.936;4.654;2024-01-16T06:13:39;-0.70;99.90
26336;DHT22;14047;50.936;4.654;2024-01-16T06:16:08;-0.70;99.90
26336;DHT22;14047;50.936;4.654;2024-01-16T06:18:34;-0.80;99.90
26336;DHT22;14047;50.936;4.654;2024-01-16T06:21:02;-0.80;99.90
26336;DHT22;14047;50.936;4.654;2024-01-16T06:23:28;-0.80;99.90
26336;DHT22;14047;50.936;4.654;2024-01-16T06:25:54;-0.90;99.90
26336;DHT22;14047;50.936;4.654;2024-01-16T06:28:21;-0.90;99.90
26336;DHT22;14047;50.936;4.654;2024-01-16T06:30:47;-0.90;99.90
26336;DHT22;14047;50.936;4.654;2024-01-16T06:33:13;-1.00;99.90
26336;DHT22;14047;50.936;4.654;2024-01-16T06:35:39;-0.80;99.90
26336;DHT22;14047;50.936;4.654;2024-01-16T06:38:05;-0.80;99.90
26336;DHT22;14047;50.936;4.654;2024-01-16T06:40:31;-0.80;99.90
26336;DHT22;14047;50.936;4.654;2024-01-16T06:42:57;-0.70;99.90
26336;DHT22;14047;50.936;4.654;2024-01-16T06:45:23;-0.70;99.90
26336;DHT22;14047;50.936;4.654;2024-01-16T06:47:51;-0.70;99.90
26336;DHT22;14047;50.936;4.654;2024-01-16T06:50:17;-0.60;99.90
26336;DHT22;14047;50.936;4.654;2024-01-16T06:52:43;-0.60;99.90
26336;DHT22;14047;50.936;4.654;2024-01-16T06:55:09;-0.60;99.90
26336;DHT22;14047;50.936;4.654;2024-01-16T06:57:35;-0.60;99.90
26336;DHT22;14047;50.936;4.654;2024-01-16T07:00:01;-0.50;99.90
26336;DHT22;14047;50.936;4.654;2024-01-16T07:02:27;-0.40;99.90
26336;DHT22;14047;50.936;4.654;2024-01-16T07:04:53;-0.30;99.90
26336;DHT22;14047;50.936;4.654;2024-01-16T07:07:19;-0.30;99.90
26336;DHT22;14047;50.936;4.654;2024-01-16T07:10:00;-0.30;99.90
26336;DHT22;14047;50.936;4.654;2024-01-16T07:12:26;-0.40;99.90
26336;DHT22;14047;50.936;4.654;2024-01-16T07:14:52;-0.30;99.90
26336;DHT22;14047;50.936;4.654;2024-01-16T07:17:18;-0.30;99.90
26336;DHT22;14047;50.936;4.654;2024-01-16T07:19:44;-0.20;99.90
26336;DHT22;14047;50.936;4.654;2024-01-16T07:22:10;-0.20;99.90
26336;DHT22;14047;50.936;4.654;2024-01-16T07:24:36;-0.20;99.90
26336;DHT22;14047;50.936;4.654;2024-01-16T07:27:02;-0.20;99.90
26336;DHT22;14047;50.936;4.654;2024-01-16T07:29:28;-0.20;99.90
26336;DHT22;14047;50.936;4.654;2024-01-16T07:31:54;-0.20;99.90
26336;DHT22;14047;50.936;4.654;2024-01-16T07:34:20;-0.20;99.90
26336;DHT22;14047;50.936;4.654;2024-01-16T07:36:48;-0.30;99.90
26336;DHT22;14047;50.936;4.654;2024-01-16T07:39:14;-0.30;99.90
26336;DHT22;14047;50.936;4.654;2024-01-16T07:41:40;-0.20;99.90
26336;DHT22;14047;50.936;4.654;2024-01-16T07:44:06;-0.20;99.90
26336;DHT22;14047;50.936;4.654;2024-01-16T07:46:32;0.00;99.90
26336;DHT22;14047;50.936;4.654;2024-01-16T07:48:57;0.00;99.90
26336;DHT22;14047;50.936;4.654;2024-01-16T07:51:23;0.00;99.90
26336;DHT22;14047;50.936;4.654;2024-01-16T07:54:05;0.00;99.90
26336;DHT22;14047;50.936;4.654;2024-01-16T07:56:32;0.10;99.90
26336;DHT22;14047;50.936;4.654;2024-01-16T07:58:59;0.10;99.90
26336;DHT22;14047;50.936;4.654;2024-01-16T08:01:25;0.20;99.90
26336;DHT22;14047;50.936;4.654;2024-01-16T08:03:51;0.20;99.90
26336;DHT22;14047;50.936;4.654;2024-01-16T08:06:17;0.20;99.90
26336;DHT22;14047;50.936;4.654;2024-01-16T08:08:43;0.30;99.90
26336;DHT22;14047;50.936;4.654;2024-01-16T08:11:08;0.30;99.90
26336;DHT22;14047;50.936;4.654;2024-01-16T08:13:35;0.30;99.90
26336;DHT22;14047;50.936;4.654;2024-01-16T08:16:00;0.20;99.90
26336;DHT22;14047;50.936;4.654;2024-01-16T08:18:26;0.00;99.90
26336;DHT22;14047;50.936;4.654;2024-01-16T08:20:52;0.10;99.90
26336;DHT22;14047;50.936;4.654;2024-01-16T08:23:18;0.30;99.90
26336;DHT22;14047;50.936;4.654;2024-01-16T08:25:46;0.40;99.90
26336;DHT22;14047;50.936;4.654;2024-01-16T08:28:13;0.40;99.90
26336;DHT22;14047;50.936;4.654;2024-01-16T08:30:40;0.40;99.90
26336;DHT22;14047;50.936;4.654;2024-01-16T08:33:06;0.40;99.90
26336;DHT22;14047;50.936;4.654;2024-01-16T08:35:33;0.40;99.90
26336;DHT22;14047;50.936;4.654;2024-01-16T08:37:59;0.30;99.90
26336;DHT22;14047;50.936;4.654;2024-01-16T08:40:25;0.30;99.90
26336;DHT22;14047;50.936;4.654;2024-01-16T08:42:51;0.30;99.90
26336;DHT22;14047;50.936;4.654;2024-01-16T08:45:23;0.30;99.90
26336;DHT22;14047;50.936;4.654;2024-01-16T08:47:52;0.20;99.90
26336;DHT22;14047;50.936;4.654;2024-01-16T08:50:18;0.20;99.90
26336;DHT22;14047;50.936;4.654;2024-01-16T08:52:44;0.30;99.90
26336;DHT22;14047;50.936;4.654;2024-01-16T08:55:10;0.20;99.90
26336;DHT22;14047;50.936;4.654;2024-01-16T08:57:39;0.20;99.90
26336;DHT22;14047;50.936;4.654;2024-01-16T09:00:06;0.20;99.90
26336;DHT22;14047;50.936;4.654;2024-01-16T09:02:32;0.20;99.90
26336;DHT22;14047;50.936;4.654;2024-01-16T09:05:01;0.20;99.90
26336;DHT22;14047;50.936;4.654;2024-01-16T09:07:27;0.20;99.90
26336;DHT22;14047;50.936;4.654;2024-01-16T09:09:53;0.20;99.90
26336;DHT22;14047;50.936;4.654;2024-01-16T09:12:20;0.20;99.90
26336;DHT22;14047;50.936;4.654;2024-01-16T09:14:46;0.30;99.90
26336;DHT22;14047;50.936;4.654;2024-01-16T09:17:12;0.40;99.90
26336;DHT22;14047;50.936;4.654;2024-01-16T09:19:38;0.30;99.90
26336;DHT22;14047;50.936;4.654;2024-01-16T09:22:04;0.30;99.90
26336;DHT22;14047;50.936;4.654;2024-01-16T09:24:30;0.40;99.90
26336;DHT22;14047;50.936;4.654;2024-01-16T09:26:56;0.40;99.90
26336;DHT22;14047;50.936;4.654;2024-01-16T09:29:24;0.40;99.90
26336;DHT22;14047;50.936;4.654;2024-01-16T09:31:50;0.40;99.90
26336;DHT22;14047;50.936;4.654;2024-01-16T09:34:17;0.30;99.90
26336;DHT22;14047;50.936;4.654;2024-01-16T09:36:43;0.30;99.90
26336;DHT22;14047;50.936;4.654;2024-01-16T09:39:09;0.40;99.90
26336;DHT22;14047;50.936;4.654;2024-01-16T09:41:45;0.50;99.90
26336;DHT22;14047;50.936;4.654;2024-01-16T09:44:11;0.40;99.90
26336;DHT22;14047;50.936;4.654;2024-01-16T09:46:38;0.30;99.90
26336;DHT22;14047;50.936;4.654;2024-01-16T09:49:06;0.50;99.90
26336;DHT22;14047;50.936;4.654;2024-01-16T09:51:32;0.50;99.90
26336;DHT22;14047;50.936;4.654;2024-01-16T09:53:58;0.50;99.90
26336;DHT22;14047;50.936;4.654;2024-01-16T09:56:24;0.70;99.90
26336;DHT22;14047;50.936;4.654;2024-01-16T09:58:57;0.70;99.90
26336;DHT22;14047;50.936;4.654;2024-01-16T10:01:27;0.80;99.90
26336;DHT22;14047;50.936;4.654;2024-01-16T10:03:53;0.80;99.90
26336;DHT22;14047;50.936;4.654;2024-01-16T10:06:20;0.90;99.90
26336;DHT22;14047;50.936;4.654;2024-01-16T10:08:46;0.80;99.90
26336;DHT22;14047;50.936;4.654;2024-01-16T10:11:12;0.80;99.90
26336;DHT22;14047;50.936;4.654;2024-01-16T10:13:39;0.80;99.90
26336;DHT22;14047;50.936;4.654;2024-01-16T10:16:05;0.80;99.90
26336;DHT22;14047;50.936;4.654;2024-01-16T10:18:31;0.90;99.90
26336;DHT22;14047;50.936;4.654;2024-01-16T10:20:58;0.80;99.90
26336;DHT22;14047;50.936;4.654;2024-01-16T10:23:28;0.80;99.90
26336;DHT22;14047;50.936;4.654;2024-01-16T10:26:10;0.80;99.90
26336;DHT22;14047;50.936;4.654;2024-01-16T10:28:38;1.00;99.90
26336;DHT22;14047;50.936;4.654;2024-01-16T10:31:06;0.90;99.90
26336;DHT22;14047;50.936;4.654;2024-01-16T10:33:32;0.90;99.90
26336;DHT22;14047;50.936;4.654;2024-01-16T10:36:12;1.00;99.90
26336;DHT22;14047;50.936;4.654;2024-01-16T10:38:39;1.00;99.90
26336;DHT22;14047;50.936;4.654;2024-01-16T10:43:37;1.00;99.90
26336;DHT22;14047;50.936;4.654;2024-01-16T10:46:14;1.00;99.90
26336;DHT22;14047;50.936;4.654;2024-01-16T10:48:42;1.10;99.90
26336;DHT22;14047;50.936;4.654;2024-01-16T10:51:17;1.20;99.90
26336;DHT22;14047;50.936;4.654;2024-01-16T10:53:44;1.40;99.90
26336;DHT22;14047;50.936;4.654;2024-01-16T10:56:11;1.40;99.90
26336;DHT22;14047;50.936;4.654;2024-01-16T10:58:40;1.40;99.90
26336;DHT22;14047;50.936;4.654;2024-01-16T11:01:15;1.40;99.90
26336;DHT22;14047;50.936;4.654;2024-01-16T11:03:48;1.50;99.90
26336;DHT22;14047;50.936;4.654;2024-01-16T11:06:16;1.50;99.90
26336;DHT22;14047;50.936;4.654;2024-01-16T11:08:46;1.60;99.90
26336;DHT22;14047;50.936;4.654;2024-01-16T11:11:13;1.60;99.90
26336;DHT22;14047;50.936;4.654;2024-01-16T11:13:40;1.70;99.90
26336;DHT22;14047;50.936;4.654;2024-01-16T11:16:13;1.60;99.90
26336;DHT22;14047;50.936;4.654;2024-01-16T11:18:39;1.60;99.90
26336;DHT22;14047;50.936;4.654;2024-01-16T11:21:07;1.60;99.90
26336;DHT22;14047;50.936;4.654;2024-01-16T11:23:34;1.70;99.90
26336;DHT22;14047;50.936;4.654;2024-01-16T11:26:28;1.70;99.90
26336;DHT22;14047;50.936;4.654;2024-01-16T11:28:55;1.80;99.90
26336;DHT22;14047;50.936;4.654;2024-01-16T11:31:32;1.70;99.90
26336;DHT22;14047;50.936;4.654;2024-01-16T11:33:59;1.70;99.90
26336;DHT22;14047;50.936;4.654;2024-01-16T11:36:49;1.70;99.90
26336;DHT22;14047;50.936;4.654;2024-01-16T11:39:22;1.80;99.90
26336;DHT22;14047;50.936;4.654;2024-01-16T11:41:55;1.90;99.90
26336;DHT22;14047;50.936;4.654;2024-01-16T11:44:47;2.00;99.90
26336;DHT22;14047;50.936;4.654;2024-01-16T11:47:20;2.10;99.90
26336;DHT22;14047;50.936;4.654;2024-01-16T11:50:10;2.00;99.90
26336;DHT22;14047;50.936;4.654;2024-01-16T11:52:43;2.00;99.90
26336;DHT22;14047;50.936;4.654;2024-01-16T11:58:25;2.00;99.90
26336;DHT22;14047;50.936;4.654;2024-01-16T12:00:59;2.10;99.90
26336;DHT22;14047;50.936;4.654;2024-01-16T12:03:25;2.10;99.90
26336;DHT22;14047;50.936;4.654;2024-01-16T12:05:58;2.10;99.90
26336;DHT22;14047;50.936;4.654;2024-01-16T12:08:24;2.20;99.90
26336;DHT22;14047;50.936;4.654;2024-01-16T12:10:50;2.10;99.90
26336;DHT22;14047;50.936;4.654;2024-01-16T12:13:16;2.10;99.90
26336;DHT22;14047;50.936;4.654;2024-01-16T12:15:43;2.20;99.90
26336;DHT22;14047;50.936;4.654;2024-01-16T12:18:09;2.10;99.90
26336;DHT22;14047;50.936;4.654;2024-01-16T12:20:36;2.10;99.90
26336;DHT22;14047;50.936;4.654;2024-01-16T12:23:04;2.20;99.90
26336;DHT22;14047;50.936;4.654;2024-01-16T12:25:32;2.30;99.90
26336;DHT22;14047;50.936;4.654;2024-01-16T12:28:03;2.30;99.90
26336;DHT22;14047;50.936;4.654;2024-01-16T12:30:31;2.40;99.90
26336;DHT22;14047;50.936;4.654;2024-01-16T12:33:13;2.50;99.90
26336;DHT22;14047;50.936;4.654;2024-01-16T12:35:43;2.50;99.90
26336;DHT22;14047;50.936;4.654;2024-01-16T12:38:13;2.50;99.90
26336;DHT22;14047;50.936;4.654;2024-01-16T12:40:50;2.50;99.90
26336;DHT22;14047;50.936;4.654;2024-01-16T12:43:18;2.60;99.90
26336;DHT22;14047;50.936;4.654;2024-01-16T12:45:55;2.60;99.90
26336;DHT22;14047;50.936;4.654;2024-01-16T12:48:27;2.60;99.90
26336;DHT22;14047;50.936;4.654;2024-01-16T12:51:03;2.60;99.90
26336;DHT22;14047;50.936;4.654;2024-01-16T12:53:30;2.60;99.90
26336;DHT22;14047;50.936;4.654;2024-01-16T12:56:01;2.60;99.90
26336;DHT22;14047;50.936;4.654;2024-01-16T12:58:37;2.70;99.90
26336;DHT22;14047;50.936;4.654;2024-01-16T13:01:24;2.60;99.90
26336;DHT22;14047;50.936;4.654;2024-01-16T13:03:50;2.80;99.90
26336;DHT22;14047;50.936;4.654;2024-01-16T13:06:21;2.70;99.90
26336;DHT22;14047;50.936;4.654;2024-01-16T13:08:47;2.70;99.90
26336;DHT22;14047;50.936;4.654;2024-01-16T13:11:14;2.60;99.90
26336;DHT22;14047;50.936;4.654;2024-01-16T13:13:49;2.60;99.90
26336;DHT22;14047;50.936;4.654;2024-01-16T13:16:26;2.70;99.90
26336;DHT22;14047;50.936;4.654;2024-01-16T13:19:00;2.70;99.90
26336;DHT22;14047;50.936;4.654;2024-01-16T13:21:27;2.80;99.90
26336;DHT22;14047;50.936;4.654;2024-01-16T13:23:53;2.80;99.90
26336;DHT22;14047;50.936;4.654;2024-01-16T13:26:19;2.80;99.90
26336;DHT22;14047;50.936;4.654;2024-01-16T13:28:45;2.80;99.90
26336;DHT22;14047;50.936;4.654;2024-01-16T13:31:13;2.80;99.90
26336;DHT22;14047;50.936;4.654;2024-01-16T13:33:40;2.90;99.90
26336;DHT22;14047;50.936;4.654;2024-01-16T13:36:09;2.90;99.90
26336;DHT22;14047;50.936;4.654;2024-01-16T13:38:37;3.00;99.90
26336;DHT22;14047;50.936;4.654;2024-01-16T13:41:03;2.90;99.90
26336;DHT22;14047;50.936;4.654;2024-01-16T13:43:29;2.90;99.90
26336;DHT22;14047;50.936;4.654;2024-01-16T13:45:55;2.90;99.90
26336;DHT22;14047;50.936;4.654;2024-01-16T13:48:21;2.90;99.90
26336;DHT22;14047;50.936;4.654;2024-01-16T13:50:47;2.90;99.90
26336;DHT22;14047;50.936;4.654;2024-01-16T13:53:13;2.80;99.90
26336;DHT22;14047;50.936;4.654;2024-01-16T13:55:40;2.80;99.90
26336;DHT22;14047;50.936;4.654;2024-01-16T13:58:07;2.80;99.90
26336;DHT22;14047;50.936;4.654;2024-01-16T14:00:33;2.80;99.90
26336;DHT22;14047;50.936;4.654;2024-01-16T14:02:59;2.80;99.90
26336;DHT22;14047;50.936;4.654;2024-01-16T14:05:26;2.90;99.90
26336;DHT22;14047;50.936;4.654;2024-01-16T14:07:52;2.90;99.90
26336;DHT22;14047;50.936;4.654;2024-01-16T14:10:22;3.00;99.90
26336;DHT22;14047;50.936;4.654;2024-01-16T14:12:51;3.00;99.90
26336;DHT22;14047;50.936;4.654;2024-01-16T14:15:19;3.10;99.90
26336;DHT22;14047;50.936;4.654;2024-01-16T14:17:48;3.00;99.90
26336;DHT22;14047;50.936;4.654;2024-01-16T14:20:15;2.90;99.90
26336;DHT22;14047;50.936;4.654;2024-01-16T14:22:42;2.90;99.90
26336;DHT22;14047;50.936;4.654;2024-01-16T14:25:10;3.00;99.90
26336;DHT22;14047;50.936;4.654;2024-01-16T14:28:01;3.00;99.90
26336;DHT22;14047;50.936;4.654;2024-01-16T14:30:29;3.10;99.90
26336;DHT22;14047;50.936;4.654;2024-01-16T14:32:55;3.10;99.90
26336;DHT22;14047;50.936;4.654;2024-01-16T14:35:22;3.10;99.90
26336;DHT22;14047;50.936;4.654;2024-01-16T14:37:50;3.10;99.90
26336;DHT22;14047;50.936;4.654;2024-01-16T14:40:16;3.10;99.90
26336;DHT22;14047;50.936;4.654;2024-01-16T14:42:52;3.00;99.90
26336;DHT22;14047;50.936;4.654;2024-01-16T14:45:23;2.90;99.90
26336;DHT22;14047;50.936;4.654;2024-01-16T14:47:50;2.90;99.90
26336;DHT22;14047;50.936;4.654;2024-01-16T14:50:17;3.00;99.90
26336;DHT22;14047;50.936;4.654;2024-01-16T14:52:53;3.00;99.90
26336;DHT22;14047;50.936;4.654;2024-01-16T14:55:19;3.00;99.90
26336;DHT22;14047;50.936;4.654;2024-01-16T14:57:48;3.10;99.90
26336;DHT22;14047;50.936;4.654;2024-01-16T15:00:25;2.90;99.90
26336;DHT22;14047;50.936;4.654;2024-01-16T15:02:55;3.00;99.90
26336;DHT22;14047;50.936;4.654;2024-01-16T15:05:22;2.80;99.90
26336;DHT22;14047;50.936;4.654;2024-01-16T15:07:51;2.80;99.90
26336;DHT22;14047;50.936;4.654;2024-01-16T15:10:17;2.80;99.90
26336;DHT22;14047;50.936;4.654;2024-01-16T15:12:44;2.70;99.90
26336;DHT22;14047;50.936;4.654;2024-01-16T15:15:13;2.70;99.90
26336;DHT22;14047;50.936;4.654;2024-01-16T15:17:41;2.80;99.90
26336;DHT22;14047;50.936;4.654;2024-01-16T15:20:08;2.80;99.90
26336;DHT22;14047;50.936;4.654;2024-01-16T15:22:45;2.90;99.90
26336;DHT22;14047;50.936;4.654;2024-01-16T15:25:12;2.90;99.90
26336;DHT22;14047;50.936;4.654;2024-01-16T15:27:43;2.90;99.90
26336;DHT22;14047;50.936;4.654;2024-01-16T15:30:14;2.60;99.90
26336;DHT22;14047;50.936;4.654;2024-01-16T15:32:40;2.50;99.90
26336;DHT22;14047;50.936;4.654;2024-01-16T15:35:06;2.50;99.90
26336;DHT22;14047;50.936;4.654;2024-01-16T15:37:34;2.30;99.90
26336;DHT22;14047;50.936;4.654;2024-01-16T15:40:01;2.20;99.90
26336;DHT22;14047;50.936;4.654;2024-01-16T15:42:29;2.10;99.90
26336;DHT22;14047;50.936;4.654;2024-01-16T15:44:55;2.00;99.90
26336;DHT22;14047;50.936;4.654;2024-01-16T15:47:22;2.00;99.90
26336;DHT22;14047;50.936;4.654;2024-01-16T15:49:48;2.20;99.90
26336;DHT22;14047;50.936;4.654;2024-01-16T15:52:14;2.10;99.90
26336;DHT22;14047;50.936;4.654;2024-01-16T15:54:40;2.30;99.90